createdAt,value
2023-03-06T00:01:00.109Z,100333.95
2023-03-06T00:03:28.520Z,100331.52
2023-03-06T00:05:59.250Z,100332.13
2023-03-06T00:08:28.571Z,100328.77
2023-03-06T00:11:03.763Z,100329.70
2023-03-06T00:16:27.470Z,100325.89
2023-03-06T00:18:55.845Z,100330.81
2023-03-06T00:21:29.215Z,100330.29
2023-03-06T00:23:58.162Z,100334.42
2023-03-06T00:26:26.399Z,100335.32
2023-03-06T00:28:55.046Z,100336.70
2023-03-06T00:31:28.612Z,100335.48
2023-03-06T00:33:58.536Z,100340.16
2023-03-06T00:36:26.765Z,100337.40
2023-03-06T00:38:59.290Z,100338.06
2023-03-06T00:41:27.732Z,100336.61
2023-03-06T00:43:56.216Z,100334.80
2023-03-06T00:46:24.488Z,100336.91
2023-03-06T00:48:52.873Z,100336.77
2023-03-06T00:51:22.589Z,100330.33
2023-03-06T00:53:51.090Z,100330.46
2023-03-06T00:56:20.123Z,100325.81
2023-03-06T00:58:49.664Z,100330.65
2023-03-06T01:01:18.456Z,100330.27
2023-03-06T01:03:46.911Z,100330.44
2023-03-06T01:06:16.184Z,100332.83
2023-03-06T01:08:45.005Z,100332.62
2023-03-06T01:11:14.252Z,100336.89
2023-03-06T01:13:42.673Z,100337.55
2023-03-06T01:16:15.094Z,100338.92
2023-03-06T01:18:43.844Z,100339.08
2023-03-06T01:21:12.302Z,100338.17
2023-03-06T01:23:42.180Z,100342.98
2023-03-06T01:26:10.568Z,100339.31
2023-03-06T01:28:40.883Z,100343.25
2023-03-06T01:31:09.411Z,100344.94
2023-03-06T01:33:38.301Z,100348.69
2023-03-06T01:36:10.305Z,100347.62
2023-03-06T01:38:39.837Z,100345.17
2023-03-06T01:41:08.422Z,100344.27
2023-03-06T01:43:39.370Z,100342.86
2023-03-06T01:46:31.022Z,100341.95
2023-03-06T01:49:11.268Z,100341.70
2023-03-06T01:51:57.548Z,100343.45
2023-03-06T01:54:34.342Z,100341.52
2023-03-06T01:57:05.973Z,100341.83
2023-03-06T01:59:35.034Z,100345.21
2023-03-06T02:02:03.382Z,100344.14
2023-03-06T02:04:31.920Z,100341.87
2023-03-06T02:07:00.442Z,100345.37
2023-03-06T02:09:31.186Z,100345.98
2023-03-06T02:12:02.064Z,100347.69
2023-03-06T02:14:30.867Z,100350.61
2023-03-06T02:17:04.492Z,100351.82
2023-03-06T02:19:52.534Z,100354.02
2023-03-06T02:22:21.593Z,100354.16
2023-03-06T02:25:03.562Z,100352.90
2023-03-06T02:27:32.460Z,100351.79
2023-03-06T02:30:06.999Z,100353.60
2023-03-06T02:32:36.105Z,100352.54
2023-03-06T02:35:07.305Z,100352.02
2023-03-06T02:37:35.764Z,100349.58
2023-03-06T02:40:08.617Z,100347.34
2023-03-06T02:42:37.883Z,100348.70
2023-03-06T02:45:06.982Z,100348.96
2023-03-06T02:47:35.269Z,100352.84
2023-03-06T02:50:05.864Z,100350.69
2023-03-06T02:52:34.681Z,100353.21
2023-03-06T02:55:04.330Z,100351.08
2023-03-06T02:57:32.918Z,100353.27
2023-03-06T03:00:01.705Z,100354.42
2023-03-06T03:02:30.856Z,100358.90
2023-03-06T03:04:59.785Z,100356.48
2023-03-06T03:07:28.181Z,100354.90
2023-03-06T03:09:56.436Z,100352.96
2023-03-06T03:12:25.236Z,100347.96
2023-03-06T03:14:53.601Z,100348.11
2023-03-06T03:17:22.736Z,100346.36
2023-03-06T03:19:54.263Z,100344.08
2023-03-06T03:22:23.451Z,100339.97
2023-03-06T03:24:52.529Z,100339.80
2023-03-06T03:27:20.883Z,100344.06
2023-03-06T03:29:49.210Z,100345.21
2023-03-06T03:32:17.545Z,100344.80
2023-03-06T03:34:46.166Z,100345.61
2023-03-06T03:37:14.752Z,100349.70
2023-03-06T03:39:43.829Z,100350.70
2023-03-06T03:42:12.725Z,100351.89
2023-03-06T03:44:42.364Z,100349.59
2023-03-06T03:47:11.922Z,100349.88
2023-03-06T03:49:40.715Z,100349.33
2023-03-06T03:52:12.227Z,100347.38
2023-03-06T03:54:43.229Z,100344.55
2023-03-06T03:57:11.526Z,100349.66
2023-03-06T03:59:44.465Z,100351.27
2023-03-06T04:02:27.676Z,100355.00
2023-03-06T04:05:05.360Z,100359.89
2023-03-06T04:07:34.209Z,100363.64
2023-03-06T04:10:02.804Z,100356.45
2023-03-06T04:12:31.926Z,100359.05
2023-03-06T04:15:08.932Z,100359.75
2023-03-06T04:17:38.313Z,100362.67
2023-03-06T04:20:09.398Z,100365.72
2023-03-06T04:22:39.046Z,100363.25
2023-03-06T04:25:07.833Z,100364.39
2023-03-06T04:27:37.887Z,100364.21
2023-03-06T04:30:07.495Z,100364.80
2023-03-06T04:32:43.936Z,100364.64
2023-03-06T04:35:12.564Z,100368.22
2023-03-06T04:38:01.227Z,100369.25
2023-03-06T04:40:32.710Z,100374.14
2023-03-06T04:43:02.528Z,100382.02
2023-03-06T04:45:31.310Z,100387.34
2023-03-06T04:48:01.852Z,100391.74
2023-03-06T04:50:32.757Z,100399.26
2023-03-06T04:53:03.683Z,100412.55
2023-03-06T04:55:33.376Z,100430.79
2023-03-06T04:58:02.341Z,100445.80
2023-03-06T05:00:31.875Z,100458.64
2023-03-06T05:03:00.995Z,100480.02
2023-03-06T05:05:32.687Z,100498.42
2023-03-06T05:08:00.974Z,100513.65
2023-03-06T05:10:33.556Z,100530.35
2023-03-06T05:13:27.192Z,100548.00
2023-03-06T05:15:55.400Z,100564.97
2023-03-06T05:18:23.653Z,100578.30
2023-03-06T05:20:51.868Z,100602.13
2023-03-06T05:23:20.693Z,100617.40
2023-03-06T05:25:49.701Z,100624.96
2023-03-06T05:28:19.575Z,100632.83
2023-03-06T05:30:52.698Z,100630.95
2023-03-06T05:33:21.903Z,100628.53
2023-03-06T05:35:56.555Z,100628.85
2023-03-06T05:38:26.229Z,100630.35
2023-03-06T05:40:54.744Z,100618.34
2023-03-06T05:43:23.804Z,100607.84
2023-03-06T05:45:53.239Z,100597.67
2023-03-06T05:48:21.570Z,100589.23
2023-03-06T05:50:56.543Z,100586.75
2023-03-06T05:53:24.839Z,100586.02
2023-03-06T05:56:04.154Z,100585.45
2023-03-06T05:58:33.845Z,100585.02
2023-03-06T06:01:09.530Z,100590.89
2023-03-06T06:03:37.953Z,100598.71
2023-03-06T06:06:07.680Z,100603.25
2023-03-06T06:08:37.837Z,100606.06
2023-03-06T06:11:07.538Z,100611.30
2023-03-06T06:13:38.737Z,100613.95
2023-03-06T06:16:19.253Z,100621.63
2023-03-06T06:18:48.336Z,100627.59
2023-03-06T06:21:20.029Z,100630.75
2023-03-06T06:23:48.796Z,100642.59
2023-03-06T06:26:16.978Z,100642.66
2023-03-06T06:28:45.550Z,100646.70
2023-03-06T06:31:13.902Z,100654.17
2023-03-06T06:33:43.273Z,100666.00
2023-03-06T06:36:20.797Z,100670.91
2023-03-06T06:38:51.048Z,100676.36
2023-03-06T06:41:51.074Z,100675.02
2023-03-06T06:44:10.773Z,100679.38
2023-03-06T06:47:23.570Z,100684.94
2023-03-06T06:49:54.268Z,100685.33
2023-03-06T06:52:23.857Z,100680.51
2023-03-06T06:54:53.034Z,100681.07
2023-03-06T06:57:22.159Z,100688.05
2023-03-06T06:59:52.579Z,100691.53
2023-03-06T07:02:23.364Z,100700.06
2023-03-06T07:05:06.937Z,100699.56
2023-03-06T07:07:36.970Z,100702.69
2023-03-06T07:10:12.934Z,100710.85
2023-03-06T07:12:45.910Z,100710.70
2023-03-06T07:15:15.628Z,100707.40
2023-03-06T07:17:43.911Z,100710.17
2023-03-06T07:20:14.665Z,100712.96
2023-03-06T07:22:51.200Z,100715.92
2023-03-06T07:25:21.771Z,100716.77
2023-03-06T07:27:54.665Z,100719.40
2023-03-06T07:30:23.497Z,100727.89
2023-03-06T07:32:55.178Z,100733.27
2023-03-06T07:35:24.487Z,100741.08
2023-03-06T07:37:53.836Z,100744.03
2023-03-06T07:40:23.965Z,100748.19
2023-03-06T07:43:06.094Z,100748.35
2023-03-06T07:45:47.246Z,100755.10
2023-03-06T07:48:16.514Z,100764.97
2023-03-06T07:50:44.803Z,100778.33
2023-03-06T07:53:13.009Z,100790.08
2023-03-06T07:55:41.938Z,100803.09
2023-03-06T07:58:10.188Z,100813.48
2023-03-06T08:00:38.409Z,100817.09
2023-03-06T08:03:07.222Z,100821.77
2023-03-06T08:05:36.213Z,100829.24
2023-03-06T08:08:04.631Z,100830.27
2023-03-06T08:10:32.979Z,100830.59
2023-03-06T08:13:03.615Z,100833.86
2023-03-06T08:15:57.335Z,100833.83
2023-03-06T08:18:27.791Z,100836.58
2023-03-06T08:21:06.557Z,100840.20
2023-03-06T08:23:43.432Z,100839.46
2023-03-06T08:26:22.979Z,100841.19
2023-03-06T08:28:52.550Z,100836.14
2023-03-06T08:31:35.537Z,100836.84
2023-03-06T08:34:29.089Z,100833.04
2023-03-06T08:37:28.938Z,100825.75
2023-03-06T08:39:57.193Z,100823.52
2023-03-06T08:42:26.240Z,100817.10
2023-03-06T08:44:54.590Z,100808.40
2023-03-06T08:47:22.836Z,100803.86
2023-03-06T08:49:51.016Z,100800.89
2023-03-06T08:52:20.174Z,100804.15
2023-03-06T08:54:48.362Z,100799.76
2023-03-06T08:57:43.915Z,100796.45
2023-03-06T09:00:17.362Z,100789.52
2023-03-06T09:02:45.840Z,100787.21
2023-03-06T09:05:14.789Z,100783.33
2023-03-06T09:07:43.429Z,100780.30
2023-03-06T09:10:18.516Z,100780.45
2023-03-06T09:12:52.068Z,100779.73
2023-03-06T09:15:22.882Z,100778.64
2023-03-06T09:17:52.418Z,100776.13
2023-03-06T09:20:21.446Z,100773.10
2023-03-06T09:22:49.651Z,100768.16
2023-03-06T09:28:14.355Z,100764.12
2023-03-06T09:30:45.120Z,100759.13
2023-03-06T09:33:15.034Z,100763.31
2023-03-06T09:35:51.175Z,100766.77
2023-03-06T09:38:20.600Z,100763.27
2023-03-06T09:41:01.980Z,100766.06
2023-03-06T09:43:50.493Z,100766.73
2023-03-06T09:46:35.338Z,100770.39
2023-03-06T09:49:45.363Z,100762.65
2023-03-06T09:52:28.464Z,100762.50
2023-03-06T09:55:23.636Z,100757.10
2023-03-06T09:58:16.069Z,100749.27
2023-03-06T10:01:12.581Z,100739.58
2023-03-06T10:03:49.969Z,100736.06
2023-03-06T10:06:24.638Z,100726.20
2023-03-06T10:08:58.231Z,100714.42
2023-03-06T10:11:44.246Z,100712.53
2023-03-06T10:14:12.670Z,100712.08
2023-03-06T10:16:41.034Z,100705.30
2023-03-06T10:21:18.707Z,100691.77
2023-03-06T10:23:54.082Z,100680.84
2023-03-06T10:26:28.282Z,100669.98
2023-03-06T10:29:35.454Z,100664.13
2023-03-06T10:32:51.864Z,100649.40
2023-03-06T10:35:22.864Z,100631.35
2023-03-06T10:37:51.628Z,100622.19
2023-03-06T10:40:28.404Z,100614.80
2023-03-06T10:43:10.847Z,100605.83
2023-03-06T10:45:49.488Z,100595.05
2023-03-06T10:48:26.804Z,100582.52
2023-03-06T10:51:18.126Z,100572.60
2023-03-06T10:53:55.446Z,100564.73
2023-03-06T10:56:32.013Z,100556.48
2023-03-06T10:59:14.559Z,100550.69
2023-03-06T11:01:52.858Z,100538.43
2023-03-06T11:04:22.341Z,100527.70
2023-03-06T11:07:17.385Z,100519.55
2023-03-06T11:09:59.136Z,100517.26
2023-03-06T11:12:35.926Z,100516.42
2023-03-06T11:15:10.714Z,100510.83
2023-03-06T11:18:09.313Z,100507.33
2023-03-06T11:20:52.575Z,100498.71
2023-03-06T11:23:46.847Z,100493.42
2023-03-06T11:26:18.327Z,100486.39
2023-03-06T11:29:08.720Z,100487.06
2023-03-06T11:31:39.721Z,100479.80
2023-03-06T11:34:11.743Z,100474.31
2023-03-06T11:37:06.105Z,100468.42
2023-03-06T11:39:43.868Z,100458.56
2023-03-06T11:43:00.301Z,100453.04
2023-03-06T11:45:48.682Z,100446.77
2023-03-06T11:48:40.040Z,100443.39
2023-03-06T11:51:45.655Z,100439.23
2023-03-06T11:54:14.513Z,100438.61
2023-03-06T11:56:48.758Z,100433.25
2023-03-06T12:00:08.502Z,100435.39
2023-03-06T12:02:57.431Z,100436.84
2023-03-06T12:05:39.641Z,100434.17
2023-03-06T12:08:22.133Z,100426.35
2023-03-06T12:10:58.365Z,100426.15
2023-03-06T12:13:43.399Z,100426.33
2023-03-06T12:16:35.650Z,100426.42
2023-03-06T12:19:16.380Z,100428.29
2023-03-06T12:21:47.904Z,100424.22
2023-03-06T12:24:28.174Z,100423.64
2023-03-06T12:27:24.906Z,100423.63
2023-03-06T12:30:02.079Z,100415.53
2023-03-06T12:33:00.405Z,100410.80
2023-03-06T12:35:42.558Z,100413.09
2023-03-06T12:38:53.341Z,100409.66
2023-03-06T12:41:40.177Z,100416.48
2023-03-06T12:44:11.571Z,100419.77
2023-03-06T12:46:43.663Z,100427.43
2023-03-06T12:49:31.384Z,100427.04
2023-03-06T12:52:01.478Z,100421.35
2023-03-06T12:54:31.110Z,100415.31
2023-03-06T12:56:59.787Z,100410.80
2023-03-06T12:59:48.706Z,100405.46
2023-03-06T13:02:50.964Z,100399.44
2023-03-06T13:05:49.619Z,100397.20
2023-03-06T13:08:44.348Z,100385.07
2023-03-06T13:11:41.300Z,100377.02
2023-03-06T13:14:54.938Z,100376.20
2023-03-06T13:17:23.453Z,100373.81
2023-03-06T13:20:23.592Z,100368.95
2023-03-06T13:22:51.992Z,100362.86
2023-03-06T13:25:20.355Z,100358.63
2023-03-06T13:27:54.779Z,100360.23
2023-03-06T13:30:39.534Z,100357.93
2023-03-06T13:33:27.217Z,100358.75
2023-03-06T13:35:55.627Z,100362.73
2023-03-06T13:38:40.763Z,100357.72
2023-03-06T13:41:32.222Z,100356.89
2023-03-06T13:44:06.453Z,100359.67
2023-03-06T13:46:36.296Z,100356.61
2023-03-06T13:49:08.534Z,100353.16
2023-03-06T13:51:53.525Z,100355.86
2023-03-06T13:54:34.236Z,100351.90
2023-03-06T13:57:18.461Z,100355.09
2023-03-06T14:00:08.222Z,100356.75
2023-03-06T14:02:58.943Z,100356.69
2023-03-06T14:05:36.040Z,100356.52
2023-03-06T14:08:19.936Z,100352.48
2023-03-06T14:10:49.592Z,100356.23
2023-03-06T14:13:32.354Z,100356.28
2023-03-06T14:16:13.268Z,100354.91
2023-03-06T14:18:47.878Z,100353.90
2023-03-06T14:21:21.789Z,100356.70
2023-03-06T14:24:01.782Z,100357.73
2023-03-06T14:26:45.423Z,100359.31
2023-03-06T14:29:24.495Z,100360.24
2023-03-06T14:31:59.678Z,100358.96
2023-03-06T14:34:33.531Z,100360.64
2023-03-06T14:37:05.701Z,100360.05
2023-03-06T14:40:02.620Z,100365.58
2023-03-06T14:42:31.150Z,100370.06
2023-03-06T14:45:19.257Z,100371.55
2023-03-06T14:47:52.147Z,100369.05
2023-03-06T14:50:25.122Z,100370.03
2023-03-06T14:52:56.841Z,100366.83
2023-03-06T14:55:26.836Z,100374.28
2023-03-06T14:58:07.656Z,100374.23
2023-03-06T15:00:41.435Z,100375.40
2023-03-06T15:03:16.636Z,100374.48
2023-03-06T15:05:48.500Z,100375.44
2023-03-06T15:08:23.954Z,100378.88
2023-03-06T15:11:03.971Z,100378.81
2023-03-06T15:13:35.940Z,100378.56
2023-03-06T15:16:14.736Z,100378.13
2023-03-06T15:19:03.123Z,100375.98
2023-03-06T15:21:36.749Z,100373.48
2023-03-06T15:24:31.817Z,100376.86
2023-03-06T15:27:03.058Z,100373.14
2023-03-06T15:29:32.260Z,100370.95
2023-03-06T15:32:32.863Z,100373.83
2023-03-06T15:35:26.210Z,100374.77
2023-03-06T15:37:55.126Z,100374.33
2023-03-06T15:40:25.058Z,100375.60
2023-03-06T15:42:54.244Z,100375.83
2023-03-06T15:45:23.768Z,100375.00
2023-03-06T15:47:54.487Z,100374.71
2023-03-06T15:50:27.181Z,100380.13
2023-03-06T15:52:55.515Z,100377.22
2023-03-06T15:55:26.231Z,100378.46
2023-03-06T15:58:00.087Z,100381.80
2023-03-06T16:00:28.816Z,100378.36
2023-03-06T16:02:58.574Z,100378.09
2023-03-06T16:05:31.831Z,100376.90
2023-03-06T16:07:59.985Z,100380.76
2023-03-06T16:10:30.280Z,100378.74
2023-03-06T16:13:06.986Z,100380.52
2023-03-06T16:16:00.597Z,100380.58
2023-03-06T16:18:38.032Z,100379.56
2023-03-06T16:21:06.994Z,100382.70
2023-03-06T16:23:39.010Z,100389.64
2023-03-06T16:26:18.250Z,100392.62
2023-03-06T16:28:54.393Z,100394.20
2023-03-06T16:31:23.361Z,100395.45
2023-03-06T16:33:53.298Z,100395.14
2023-03-06T16:36:27.295Z,100399.70
2023-03-06T16:38:55.645Z,100402.30
2023-03-06T16:41:23.973Z,100393.83
2023-03-06T16:43:52.443Z,100394.87
2023-03-06T16:46:22.577Z,100394.02
2023-03-06T16:48:51.354Z,100392.64
2023-03-06T16:51:21.108Z,100397.00
2023-03-06T16:53:51.171Z,100397.02
2023-03-06T16:56:20.649Z,100401.02
2023-03-06T16:58:49.028Z,100399.80
2023-03-06T17:01:18.671Z,100398.94
2023-03-06T17:03:47.273Z,100408.13
2023-03-06T17:06:18.601Z,100415.77
2023-03-06T17:08:48.610Z,100417.49
2023-03-06T17:11:23.452Z,100420.09
2023-03-06T17:13:59.903Z,100424.77
2023-03-06T17:16:28.842Z,100426.85
2023-03-06T17:19:22.607Z,100426.01
2023-03-06T17:21:50.930Z,100422.89
2023-03-06T17:24:22.526Z,100422.88
2023-03-06T17:26:55.032Z,100427.92
2023-03-06T17:29:25.283Z,100429.66
2023-03-06T17:31:55.371Z,100431.73
2023-03-06T17:34:25.470Z,100432.79
2023-03-06T17:36:53.931Z,100435.40
2023-03-06T17:39:23.908Z,100433.17
2023-03-06T17:41:52.928Z,100436.48
2023-03-06T17:44:21.608Z,100440.13
2023-03-06T17:46:50.435Z,100442.74
2023-03-06T17:49:22.559Z,100445.69
2023-03-06T17:51:58.501Z,100445.87
2023-03-06T17:54:27.356Z,100450.57
2023-03-06T17:56:56.666Z,100451.44
2023-03-06T17:59:28.290Z,100454.92
2023-03-06T18:01:58.639Z,100454.77
2023-03-06T18:04:27.174Z,100447.98
2023-03-06T18:07:00.195Z,100452.17
2023-03-06T18:09:28.683Z,100455.13
2023-03-06T18:11:57.395Z,100452.70
2023-03-06T18:14:30.933Z,100454.95
2023-03-06T18:17:00.631Z,100456.52
2023-03-06T18:19:29.608Z,100454.95
2023-03-06T18:21:59.210Z,100460.32
2023-03-06T18:24:28.012Z,100464.83
2023-03-06T18:26:56.496Z,100464.64
2023-03-06T18:29:27.001Z,100469.49
2023-03-06T18:31:57.115Z,100473.48
2023-03-06T18:34:25.472Z,100477.30
2023-03-06T18:36:55.740Z,100478.85
2023-03-06T18:39:24.325Z,100474.51
2023-03-06T18:41:53.761Z,100473.63
2023-03-06T18:44:27.877Z,100473.63
2023-03-06T18:46:56.198Z,100476.58
2023-03-06T18:49:25.589Z,100476.41
2023-03-06T18:51:54.950Z,100479.18
2023-03-06T18:54:25.495Z,100485.27
2023-03-06T18:56:53.842Z,100487.69
2023-03-06T18:59:45.364Z,100492.20
2023-03-06T19:02:13.777Z,100489.77
2023-03-06T19:04:42.056Z,100491.17
2023-03-06T19:07:12.783Z,100491.17
2023-03-06T19:09:43.005Z,100498.45
2023-03-06T19:12:11.822Z,100502.09
2023-03-06T19:14:40.804Z,100504.52
2023-03-06T19:17:09.361Z,100505.91
2023-03-06T19:19:38.759Z,100511.80
2023-03-06T19:22:08.261Z,100512.66
2023-03-06T19:24:36.793Z,100512.64
2023-03-06T19:27:05.551Z,100514.02
2023-03-06T19:29:33.869Z,100513.68
2023-03-06T19:32:03.627Z,100508.13
2023-03-06T19:34:33.367Z,100507.95
2023-03-06T19:37:03.861Z,100513.50
2023-03-06T19:39:33.523Z,100511.61
2023-03-06T19:42:04.871Z,100512.98
2023-03-06T19:44:34.082Z,100511.42
2023-03-06T19:47:02.260Z,100512.99
2023-03-06T19:49:38.423Z,100511.09
2023-03-06T19:52:07.696Z,100509.54
2023-03-06T19:54:36.921Z,100509.56
2023-03-06T19:57:06.194Z,100510.42
2023-03-06T20:00:02.199Z,100508.69
2023-03-06T20:02:41.400Z,100512.33
2023-03-06T20:05:09.961Z,100509.55
2023-03-06T20:07:38.535Z,100506.42
2023-03-06T20:10:09.097Z,100510.08
2023-03-06T20:12:38.413Z,100509.02
2023-03-06T20:15:07.650Z,100510.25
2023-03-06T20:17:37.073Z,100511.64
2023-03-06T20:20:06.028Z,100523.26
2023-03-06T20:22:34.586Z,100521.52
2023-03-06T20:25:06.305Z,100520.64
2023-03-06T20:27:34.945Z,100517.34
2023-03-06T20:30:03.703Z,100514.92
2023-03-06T20:32:33.472Z,100515.27
2023-03-06T20:35:07.260Z,100513.52
2023-03-06T20:37:35.676Z,100511.98
2023-03-06T20:40:04.785Z,100506.41
2023-03-06T20:42:33.679Z,100506.07
2023-03-06T20:45:01.966Z,100501.73
2023-03-06T20:47:36.276Z,100506.94
2023-03-06T20:50:07.457Z,100509.19
2023-03-06T20:52:40.529Z,100508.16
2023-03-06T20:55:10.750Z,100509.55
2023-03-06T20:57:39.901Z,100510.25
2023-03-06T21:00:09.116Z,100505.05
2023-03-06T21:02:37.469Z,100508.52
2023-03-06T21:05:13.006Z,100503.66
2023-03-06T21:07:41.652Z,100503.65
2023-03-06T21:10:10.490Z,100501.41
2023-03-06T21:12:39.020Z,100498.98
2023-03-06T21:15:08.464Z,100502.45
2023-03-06T21:17:36.878Z,100503.48
2023-03-06T21:20:06.833Z,100508.52
2023-03-06T21:22:35.321Z,100511.13
2023-03-06T21:25:09.214Z,100508.36
2023-03-06T21:27:38.102Z,100509.21
2023-03-06T21:30:07.360Z,100507.48
2023-03-06T21:32:36.152Z,100506.46
2023-03-06T21:35:04.756Z,100505.58
2023-03-06T21:37:36.626Z,100510.61
2023-03-06T21:40:08.140Z,100506.45
2023-03-06T21:42:36.443Z,100505.58
2023-03-06T21:45:05.798Z,100505.75
2023-03-06T21:47:59.724Z,100505.58
2023-03-06T21:50:28.114Z,100506.27
2023-03-06T21:52:59.565Z,100509.92
2023-03-06T21:55:27.777Z,100507.14
2023-03-06T21:57:56.595Z,100504.36
2023-03-06T22:00:26.239Z,100504.88
2023-03-06T22:02:55.829Z,100503.52
2023-03-06T22:05:26.963Z,100501.60
2023-03-06T22:07:55.222Z,100503.33
2023-03-06T22:10:23.487Z,100508.02
2023-03-06T22:12:53.294Z,100510.80
2023-03-06T22:15:24.230Z,100509.05
2023-03-06T22:18:01.243Z,100513.05
2023-03-06T22:20:29.777Z,100511.83
2023-03-06T22:22:58.439Z,100515.64
2023-03-06T22:25:26.833Z,100514.42
2023-03-06T22:27:55.253Z,100512.69
2023-03-06T22:30:23.464Z,100516.33
2023-03-06T22:32:54.756Z,100517.38
2023-03-06T22:35:23.029Z,100517.02
2023-03-06T22:38:45.165Z,100515.45
2023-03-06T22:41:15.023Z,100519.61
2023-03-06T22:43:43.680Z,100518.92
2023-03-06T22:46:13.748Z,100519.97
2023-03-06T22:48:42.881Z,100516.84
2023-03-06T22:51:16.157Z,100517.87
2023-03-06T22:53:45.667Z,100516.66
2023-03-06T22:56:17.291Z,100518.23
2023-03-06T22:58:46.893Z,100520.48
2023-03-06T23:01:23.461Z,100517.89
2023-03-06T23:03:53.518Z,100518.93
2023-03-06T23:06:35.723Z,100514.08
2023-03-06T23:09:06.434Z,100514.94
2023-03-06T23:11:54.342Z,100516.33
2023-03-06T23:14:43.855Z,100515.30
2023-03-06T23:17:34.490Z,100519.27
2023-03-06T23:20:22.154Z,100518.23
2023-03-06T23:23:10.445Z,100514.95
2023-03-06T23:25:44.615Z,100518.08
2023-03-06T23:28:13.029Z,100512.69
2023-03-06T23:30:42.018Z,100514.44
2023-03-06T23:33:10.768Z,100511.83
2023-03-06T23:35:40.543Z,100505.59
2023-03-06T23:38:08.939Z,100505.24
2023-03-06T23:40:38.735Z,100499.69
2023-03-06T23:43:07.332Z,100501.08
2023-03-06T23:45:36.867Z,100501.77
2023-03-06T23:48:08.034Z,100499.15
2023-03-06T23:50:39.765Z,100501.93
2023-03-06T23:53:08.701Z,100501.58
2023-03-06T23:55:44.488Z,100499.33
2023-03-06T23:58:17.556Z,100499.66
